This is the latest recevied weather packets stored in our database for station/object IZ0OSI-10. If no packets are shown the sender has not sent any weather packets the latest 1 day(s).
| Time | Temp. | Humidity | Pressure | Rain* | Wind** | Luminosity | Snow |
|---|---|---|---|---|---|---|---|
| 1778093625 | 20° C | 75% | 1004.2 hPa | - | - | - | - |
| 1778090023 | 20° C | 77% | 1003.9 hPa | - | - | - | - |
| 1778088222 | 20° C | 76% | 1004 hPa | - | - | - | - |
| 1778082820 | 21.67° C | 62% | 1004 hPa | - | - | - | - |
| 1778081020 | 22.22° C | 60% | 1004 hPa | - | - | - | - |
| 1778079218 | 22.78° C | 58% | 1004 hPa | - | - | - | - |
| 1778075616 | 23.33° C | 55% | 1004.1 hPa | - | - | - | - |
| 1778072015 | 23.89° C | 51% | 1004.3 hPa | - | - | - | - |
| 1778068413 | 25° C | 47% | 1004.3 hPa | - | - | - | - |
| 1778061210 | 23.33° C | 46% | 1004.5 hPa | - | - | - | - |
| 1778057603 | 21.67° C | 57% | 1004.1 hPa | - | - | - | - |
| 1778054001 | 20.56° C | 58% | 1004 hPa | - | - | - | - |
| 1778052200 | 19.44° C | 58% | 1003.9 hPa | - | - | - | - |
| 1778050400 | 18.89° C | 62% | 1004.2 hPa | - | - | - | - |
| 1778048599 | 18.33° C | 64% | 1004.4 hPa | - | - | - | - |
| 1778046798 | 17.78° C | 66% | 1004.3 hPa | - | - | - | - |
| 1778044998 | 17.78° C | 67% | 1004.3 hPa | - | - | - | - |
| 1778043196 | 17.78° C | 66% | 1004.2 hPa | - | - | - | - |
| 1778041395 | 18.33° C | 66% | 1004.2 hPa | - | - | - | - |
| 1778037794 | 18.33° C | 64% | 1004.4 hPa | - | - | - | - |
| 1778035993 | 18.33° C | 63% | 1004.8 hPa | - | - | - | - |
| 1778034192 | 18.33° C | 64% | 1005 hPa | - | - | - | - |
| 1778032391 | 18.33° C | 64% | 1005 hPa | - | - | - | - |
| 1778028790 | 18.89° C | 63% | 1005 hPa | - | - | - | - |
| 1778026989 | 18.89° C | 65% | 1004.9 hPa | - | - | - | - |
* Rain since midnight (hover to see other rain measurements)
** Current wind speed in m/s (hover to see current wind gust speed)